Time;durP1;ratioP1;P1;durP2;ratioP2;P2;SDS_P1;SDS_P2;PMS_P1;PMS_P2;Temp;Humidity;BMP_temperature;BMP_pressure;BME280_temperature;BME280_humidity;BME280_pressure;Samples;Min_cycle;Max_cycle;Signal;HPM_P1;HPM_P2
2021/07/29 00:02:20;;;;;;;;;;;;;;;17.31;nan;100306.16;4975754;28;20393;-89
2021/07/29 00:04:45;;;;;;;;;;;;;;;17.30;nan;100314.34;4988815;28;19925;-87
2021/07/29 00:07:10;;;;;;;;;;;;;;;17.30;nan;100307.16;4994204;28;19918;-87
2021/07/29 00:09:36;;;;;;;;;;;;;;;17.29;nan;100308.19;4979733;28;19918;-87
2021/07/29 00:12:01;;;;;;;;;;;;;;;17.28;nan;100301.22;4981763;28;19918;-87
2021/07/29 00:14:26;;;;;;;;;;;;;;;17.30;nan;100298.31;4964942;28;19977;-87
2021/07/29 00:16:57;;;;;;;;;;;;;;;17.29;nan;100302.03;4970516;28;19921;-86
2021/07/29 00:19:22;;;;;;;;;;;;;;;17.25;nan;100306.94;4994029;28;20292;-86
2021/07/29 00:21:47;;;;;;;;;;;;;;;17.27;nan;100307.56;4984639;28;19923;-87
2021/07/29 00:24:19;;;;;;;;;;;;;;;17.23;nan;100306.31;4943266;29;19925;-88
2021/07/29 00:26:44;;;;;;;;;;;;;;;17.17;nan;100305.28;4966873;28;19928;-85
2021/07/29 00:29:09;;;;;;;;;;;;;;;17.16;nan;100298.28;4993217;28;20365;-89
2021/07/29 00:31:35;;;;;;;;;;;;;;;17.14;nan;100296.84;4980690;28;19922;-88
2021/07/29 00:34:01;;;;;;;;;;;;;;;17.16;nan;100298.28;4989892;28;19914;-88
2021/07/29 00:36:26;;;;;;;;;;;;;;;17.16;nan;100292.09;4971043;28;19925;-88
2021/07/29 00:38:51;;;;;;;;;;;;;;;17.18;nan;100293.59;4979106;28;19918;-86
2021/07/29 00:41:17;;;;;;;;;;;;;;;17.11;nan;100292.72;4968121;28;19926;-87
2021/07/29 00:43:44;;;;;;;;;;;;;;;17.11;nan;100292.72;4978999;28;19921;-86
2021/07/29 00:46:09;;;;;;;;;;;;;;;17.09;nan;100284.09;4975382;28;19914;-86
2021/07/29 00:48:34;;;;;;;;;;;;;;;17.09;nan;100289.44;4974482;28;19925;-84
2021/07/29 00:51:00;;;;;;;;;;;;;;;17.11;nan;100286.53;4979482;28;19922;-86
2021/07/29 00:53:26;;;;;;;;;;;;;;;17.10;nan;100285.72;4964651;28;19924;-87
2021/07/29 00:55:52;;;;;;;;;;;;;;;17.12;nan;100283.69;4964499;28;20009;-86
2021/07/29 00:58:17;;;;;;;;;;;;;;;17.12;nan;100277.53;4981783;28;19918;-87
2021/07/29 01:00:44;;;;;;;;;;;;;;;17.12;nan;100270.31;4966590;28;19918;-87
2021/07/29 01:03:09;;;;;;;;;;;;;;;17.07;nan;100278.13;4994155;28;19914;-87
2021/07/29 01:05:35;;;;;;;;;;;;;;;17.10;nan;100271.53;4983394;28;19940;-86
2021/07/29 01:08:00;;;;;;;;;;;;;;;17.03;nan;100270.72;4990762;28;20350;-87
2021/07/29 01:10:25;;;;;;;;;;;;;;;17.01;nan;100270.06;4987639;28;19920;-87
2021/07/29 01:12:50;;;;;;;;;;;;;;;17.02;nan;100269.88;4989537;28;19925;-88
2021/07/29 01:15:15;;;;;;;;;;;;;;;16.95;nan;100269.03;4975273;28;19918;-88
2021/07/29 01:17:41;;;;;;;;;;;;;;;16.90;nan;100263.44;4969076;28;19944;-87
2021/07/29 01:20:06;;;;;;;;;;;;;;;16.89;nan;100261.81;4978983;28;19968;-86
2021/07/29 01:22:32;;;;;;;;;;;;;;;16.85;nan;100263.22;4961850;28;19978;-85
2021/07/29 01:24:58;;;;;;;;;;;;;;;16.81;nan;100262.00;4977934;28;20389;-87
2021/07/29 01:27:23;;;;;;;;;;;;;;;16.78;nan;100260.53;4972643;28;19918;-87
2021/07/29 01:29:48;;;;;;;;;;;;;;;16.77;nan;100262.34;4978895;28;20358;-87
2021/07/29 01:32:14;;;;;;;;;;;;;;;16.74;nan;100260.06;4976779;28;20259;-87
2021/07/29 01:34:39;;;;;;;;;;;;;;;16.70;nan;100248.13;4962345;28;19982;-87
2021/07/29 01:37:04;;;;;;;;;;;;;;;16.65;nan;100257.78;4972123;28;19996;-88
2021/07/29 01:39:35;;;;;;;;;;;;;;;16.66;nan;100257.59;4978612;28;19917;-86
2021/07/29 01:42:00;;;;;;;;;;;;;;;16.67;nan;100261.91;4981072;28;20309;-87
2021/07/29 01:44:26;;;;;;;;;;;;;;;16.64;nan;100254.28;4996286;28;19918;-86
2021/07/29 01:46:51;;;;;;;;;;;;;;;16.65;nan;100250.59;4979276;28;19976;-87
2021/07/29 01:49:22;;;;;;;;;;;;;;;16.64;nan;100256.16;4971578;28;19972;-87
2021/07/29 01:51:47;;;;;;;;;;;;;;;16.59;nan;100258.56;4995576;28;20230;-87
2021/07/29 01:54:12;;;;;;;;;;;;;;;16.61;nan;100257.34;4978276;28;19945;-88
2021/07/29 01:56:39;;;;;;;;;;;;;;;16.59;nan;100259.41;4961705;28;19914;-88
2021/07/29 01:59:06;;;;;;;;;;;;;;;16.59;nan;100254.06;4973212;28;19920;-87
2021/07/29 02:01:32;;;;;;;;;;;;;;;16.54;nan;100256.47;4963093;28;19921;-88
2021/07/29 02:03:57;;;;;;;;;;;;;;;16.56;nan;100246.44;4969528;28;19922;-87
2021/07/29 02:06:22;;;;;;;;;;;;;;;16.55;nan;100258.97;4977312;28;20365;-85
2021/07/29 02:08:47;;;;;;;;;;;;;;;16.52;nan;100258.53;4971352;28;19923;-87
2021/07/29 02:11:13;;;;;;;;;;;;;;;16.52;nan;100261.22;4988569;28;19918;-87
2021/07/29 02:13:38;;;;;;;;;;;;;;;16.49;nan;100259.75;4997983;28;19913;-86
2021/07/29 02:16:10;;;;;;;;;;;;;;;16.45;nan;100253.16;4960003;28;19918;-86
2021/07/29 02:18:35;;;;;;;;;;;;;;;16.47;nan;100256.47;4981021;28;19948;-87
2021/07/29 02:21:00;;;;;;;;;;;;;;;16.38;nan;100251.50;4984900;28;19926;-87
2021/07/29 02:23:26;;;;;;;;;;;;;;;16.40;nan;100246.75;4994081;28;19913;-87
2021/07/29 02:25:52;;;;;;;;;;;;;;;16.32;nan;100253.06;4961337;28;19975;-87
2021/07/29 02:28:17;;;;;;;;;;;;;;;16.39;nan;100250.44;4960570;28;20005;-86
2021/07/29 02:30:42;;;;;;;;;;;;;;;16.38;nan;100248.81;4978199;28;19917;-87
2021/07/29 02:33:07;;;;;;;;;;;;;;;16.41;nan;100254.56;4961242;28;19914;-87
2021/07/29 02:35:33;;;;;;;;;;;;;;;16.44;nan;100253.34;4988240;28;19920;-86
2021/07/29 02:37:58;;;;;;;;;;;;;;;16.43;nan;100257.88;4976775;28;20324;-86
2021/07/29 02:40:23;;;;;;;;;;;;;;;16.49;nan;100265.09;4976617;28;19977;-86
2021/07/29 02:42:48;;;;;;;;;;;;;;;16.49;nan;100257.09;4970164;28;19918;-86
2021/07/29 02:45:15;;;;;;;;;;;;;;;16.48;nan;100265.28;4984211;28;19924;-87
2021/07/29 02:47:40;;;;;;;;;;;;;;;16.52;nan;100258.53;4994111;28;20350;-87
2021/07/29 02:50:06;;;;;;;;;;;;;;;16.50;nan;100263.25;4995736;28;19926;-88
2021/07/29 02:52:31;;;;;;;;;;;;;;;16.59;nan;100262.06;4960023;28;19918;-85
2021/07/29 02:54:56;;;;;;;;;;;;;;;16.58;nan;100259.59;4962664;28;19917;-86
2021/07/29 02:57:21;;;;;;;;;;;;;;;16.60;nan;100266.38;4997562;28;19921;-87
2021/07/29 02:59:47;;;;;;;;;;;;;;;16.62;nan;100253.66;4978770;28;20286;-86
2021/07/29 03:02:13;;;;;;;;;;;;;;;16.65;nan;100263.13;4982834;28;19922;-88
2021/07/29 03:04:38;;;;;;;;;;;;;;;16.69;nan;100270.53;4979617;28;19918;-87
2021/07/29 03:07:03;;;;;;;;;;;;;;;16.73;nan;100263.78;4980188;28;19924;-87
2021/07/29 03:09:29;;;;;;;;;;;;;;;16.76;nan;100271.38;4976876;28;19914;-87
2021/07/29 03:11:54;;;;;;;;;;;;;;;16.78;nan;100265.84;4984938;28;19921;-86
2021/07/29 03:14:19;;;;;;;;;;;;;;;16.79;nan;100267.53;4976894;28;19925;-87
2021/07/29 03:16:44;;;;;;;;;;;;;;;16.87;nan;100258.50;4977251;28;20267;-86
2021/07/29 03:19:09;;;;;;;;;;;;;;;16.97;nan;100265.13;4972240;28;20358;-86
2021/07/29 03:21:35;;;;;;;;;;;;;;;17.01;nan;100262.88;4980402;28;19929;-87
2021/07/29 03:24:00;;;;;;;;;;;;;;;17.06;nan;100271.13;4979215;28;19997;-86
2021/07/29 03:26:25;;;;;;;;;;;;;;;17.11;nan;100257.16;4961645;28;19918;-87
2021/07/29 03:28:50;;;;;;;;;;;;;;;17.04;nan;100270.50;4968350;28;19921;-86
2021/07/29 03:31:16;;;;;;;;;;;;;;;17.10;nan;100266.22;4993790;28;19921;-87
2021/07/29 03:33:41;;;;;;;;;;;;;;;17.05;nan;100277.50;4979652;28;19918;-87
2021/07/29 03:36:06;;;;;;;;;;;;;;;17.12;nan;100273.00;4976579;28;20369;-86
2021/07/29 03:38:31;;;;;;;;;;;;;;;17.17;nan;100273.22;4986027;28;19922;-86
2021/07/29 03:40:56;;;;;;;;;;;;;;;17.16;nan;100274.25;4962390;28;19925;-86
2021/07/29 03:43:21;;;;;;;;;;;;;;;17.17;nan;100269.72;4981642;28;19917;-85
2021/07/29 03:45:47;;;;;;;;;;;;;;;17.12;nan;100278.34;4975897;28;19914;-85
2021/07/29 03:48:12;;;;;;;;;;;;;;;17.14;nan;100284.31;4981467;28;19925;-86
2021/07/29 03:50:38;;;;;;;;;;;;;;;17.13;nan;100279.16;4964641;28;19914;-86
2021/07/29 03:53:04;;;;;;;;;;;;;;;17.14;nan;100281.63;4974728;28;19918;-85
2021/07/29 03:55:29;;;;;;;;;;;;;;;17.16;nan;100284.09;4981711;28;19925;-86
2021/07/29 03:57:54;;;;;;;;;;;;;;;17.12;nan;100286.34;4980916;28;19918;-86
2021/07/29 04:00:19;;;;;;;;;;;;;;;17.20;nan;100293.34;4975576;28;20313;-87
2021/07/29 04:02:45;;;;;;;;;;;;;;;17.17;nan;100294.59;4964577;28;19918;-87
2021/07/29 04:05:10;;;;;;;;;;;;;;;17.15;nan;100285.13;4979919;28;19938;-85
2021/07/29 04:07:36;;;;;;;;;;;;;;;17.19;nan;100291.72;4980624;28;20026;-86
2021/07/29 04:10:01;;;;;;;;;;;;;;;17.25;nan;100290.91;4964834;28;19922;-85
2021/07/29 04:12:27;;;;;;;;;;;;;;;17.23;nan;100300.97;4963174;28;19914;-85
2021/07/29 04:14:52;;;;;;;;;;;;;;;17.22;nan;100301.19;4978351;28;19960;-86
2021/07/29 04:17:17;;;;;;;;;;;;;;;17.26;nan;100303.25;4968997;28;19918;-87
2021/07/29 04:19:43;;;;;;;;;;;;;;;17.28;nan;100305.72;4980655;28;19925;-84
2021/07/29 04:22:09;;;;;;;;;;;;;;;17.29;nan;100304.69;4980263;28;19922;-85
2021/07/29 04:24:34;;;;;;;;;;;;;;;17.30;nan;100309.00;4973700;28;19924;-87
2021/07/29 04:27:00;;;;;;;;;;;;;;;17.29;nan;100304.69;4965114;28;20019;-86
2021/07/29 04:29:26;;;;;;;;;;;;;;;17.26;nan;100302.44;4974427;28;19918;-85
2021/07/29 04:31:52;;;;;;;;;;;;;;;17.30;nan;100307.16;4968313;28;19945;-87
2021/07/29 04:34:17;;;;;;;;;;;;;;;17.29;nan;100302.03;4978547;28;19914;-87
2021/07/29 04:36:42;;;;;;;;;;;;;;;17.29;nan;100300.16;4980431;28;19921;-87
2021/07/29 04:39:08;;;;;;;;;;;;;;;17.34;nan;100304.91;4976700;28;20513;-85
2021/07/29 04:41:34;;;;;;;;;;;;;;;17.36;nan;100300.19;4969616;28;19962;-87
2021/07/29 04:43:59;;;;;;;;;;;;;;;17.32;nan;100302.44;4980152;28;19941;-87
2021/07/29 04:46:24;;;;;;;;;;;;;;;17.33;nan;100303.28;4982354;28;19937;-87
2021/07/29 04:48:49;;;;;;;;;;;;;;;17.35;nan;100306.56;4998382;28;20374;-87
2021/07/29 04:51:14;;;;;;;;;;;;;;;17.40;nan;100315.63;4971892;28;19917;-86
2021/07/29 04:53:39;;;;;;;;;;;;;;;17.41;nan;100311.09;4992717;28;19932;-86
2021/07/29 04:56:05;;;;;;;;;;;;;;;17.47;nan;100312.13;4987221;28;19964;-85
2021/07/29 04:58:30;;;;;;;;;;;;;;;17.44;nan;100316.03;4993715;28;19953;-86
2021/07/29 05:00:55;;;;;;;;;;;;;;;17.46;nan;100321.19;4977254;28;19921;-87
2021/07/29 05:03:20;;;;;;;;;;;;;;;17.45;nan;100316.84;4990022;28;19926;-86
2021/07/29 05:05:46;;;;;;;;;;;;;;;17.51;nan;100313.38;4978894;28;19936;-87
2021/07/29 05:08:11;;;;;;;;;;;;;;;17.55;nan;100317.31;4987343;28;19957;-86
2021/07/29 05:10:36;;;;;;;;;;;;;;;17.56;nan;100313.59;4984868;28;19925;-86
2021/07/29 05:13:01;;;;;;;;;;;;;;;17.53;nan;100309.47;4966560;28;20404;-85
2021/07/29 05:15:26;;;;;;;;;;;;;;;17.57;nan;100305.38;4963386;28;19969;-87
2021/07/29 05:17:55;;;;;;;;;;;;;;;17.55;nan;100296.75;4962703;28;19941;-86
2021/07/29 05:20:21;;;;;;;;;;;;;;;17.60;nan;100304.97;4962248;28;19914;-87
2021/07/29 05:22:46;;;;;;;;;;;;;;;17.55;nan;100306.63;4979457;28;19992;-86
2021/07/29 05:25:11;;;;;;;;;;;;;;;17.56;nan;100316.28;4994253;28;19914;-87
2021/07/29 05:27:36;;;;;;;;;;;;;;;17.57;nan;100317.94;4964412;28;19918;-85
2021/07/29 05:30:02;;;;;;;;;;;;;;;17.66;nan;100314.00;4945675;28;20565;-84
2021/07/29 05:32:27;;;;;;;;;;;;;;;17.71;nan;100310.72;4995660;28;20314;-86
2021/07/29 05:34:52;;;;;;;;;;;;;;;17.78;nan;100325.78;4962203;28;20254;-87
2021/07/29 05:37:19;;;;;;;;;;;;;;;17.88;nan;100332.63;4979345;28;19925;-85
2021/07/29 05:39:45;;;;;;;;;;;;;;;18.00;nan;100330.97;4974082;28;19997;-85
2021/07/29 05:42:14;;;;;;;;;;;;;;;17.97;nan;100320.66;4985245;28;20369;-86
2021/07/29 05:44:41;;;;;;;;;;;;;;;17.98;nan;100323.16;4987782;28;19925;-87
2021/07/29 05:47:06;;;;;;;;;;;;;;;18.03;nan;100325.22;4960585;28;19918;-86
2021/07/29 05:49:31;;;;;;;;;;;;;;;18.10;nan;100326.03;4979346;28;19972;-86
2021/07/29 05:51:57;;;;;;;;;;;;;;;18.16;nan;100332.41;4965013;28;19929;-84
2021/07/29 05:54:22;;;;;;;;;;;;;;;18.19;nan;100332.00;4971574;28;19941;-84
2021/07/29 05:56:47;;;;;;;;;;;;;;;18.27;nan;100328.28;4967689;28;19940;-87
2021/07/29 05:59:12;;;;;;;;;;;;;;;18.33;nan;100336.31;4966248;28;20535;-85
2021/07/29 06:01:39;;;;;;;;;;;;;;;18.30;nan;100327.88;4997550;28;19918;-85
2021/07/29 06:04:04;;;;;;;;;;;;;;;18.29;nan;100332.41;4974731;28;19917;-85
2021/07/29 06:06:29;;;;;;;;;;;;;;;18.43;nan;100344.75;4962469;28;20057;-86
2021/07/29 06:08:57;;;;;;;;;;;;;;;18.58;nan;100343.69;4961994;28;20362;-84
2021/07/29 06:11:23;;;;;;;;;;;;;;;18.73;nan;100348.81;4979106;28;20369;-84
2021/07/29 06:13:48;;;;;;;;;;;;;;;18.84;nan;100351.69;4980313;28;19920;-84
2021/07/29 06:16:14;;;;;;;;;;;;;;;18.87;nan;100345.09;4979374;28;19913;-86
2021/07/29 06:18:48;;;;;;;;;;;;;;;18.96;nan;100345.69;4972042;28;19948;-85
2021/07/29 06:21:13;;;;;;;;;;;;;;;18.93;nan;100351.47;4983379;28;20384;-85
2021/07/29 06:23:38;;;;;;;;;;;;;;;18.91;nan;100358.91;4979442;28;19969;-86
2021/07/29 06:26:11;;;;;;;;;;;;;;;19.18;nan;100360.44;4961311;28;19946;-87
2021/07/29 06:28:37;;;;;;;;;;;;;;;19.28;nan;100365.34;4979148;28;20020;-86
2021/07/29 06:31:02;;;;;;;;;;;;;;;19.25;nan;100361.25;4997914;28;19922;-86
2021/07/29 06:33:27;;;;;;;;;;;;;;;19.28;nan;100360.00;4987964;28;19918;-86
2021/07/29 06:35:52;;;;;;;;;;;;;;;19.51;nan;100362.97;4979624;28;19918;-85
2021/07/29 06:38:18;;;;;;;;;;;;;;;19.59;nan;100372.63;4997288;28;20261;-86
2021/07/29 06:40:43;;;;;;;;;;;;;;;19.66;nan;100370.75;4994934;28;20000;-86
2021/07/29 06:43:08;;;;;;;;;;;;;;;19.65;nan;100373.63;4997645;28;19914;-86
2021/07/29 06:45:33;;;;;;;;;;;;;;;19.66;nan;100376.13;4983770;28;19974;-88
2021/07/29 06:47:58;;;;;;;;;;;;;;;19.71;nan;100375.47;4972416;28;19914;-86
2021/07/29 06:50:24;;;;;;;;;;;;;;;19.75;nan;100373.19;4985467;28;21503;-86
2021/07/29 06:52:49;;;;;;;;;;;;;;;19.85;nan;100381.59;4976021;28;20440;-85
2021/07/29 06:55:14;;;;;;;;;;;;;;;20.02;nan;100387.25;4992871;28;19918;-86
2021/07/29 06:57:39;;;;;;;;;;;;;;;20.10;nan;100393.19;4977605;28;20262;-87
2021/07/29 07:00:05;;;;;;;;;;;;;;;20.19;nan;100392.91;4957520;28;20370;-85
2021/07/29 07:02:30;;;;;;;;;;;;;;;20.37;nan;100391.09;4958257;28;20291;-86
2021/07/29 07:04:55;;;;;;;;;;;;;;;21.16;nan;100398.63;4967223;28;20009;-88
2021/07/29 07:07:20;;;;;;;;;;;;;;;21.62;nan;100394.59;4975853;28;19989;-86
2021/07/29 07:09:46;;;;;;;;;;;;;;;22.14;nan;100389.44;4976963;28;19918;-86
2021/07/29 07:12:11;;;;;;;;;;;;;;;22.02;nan;100397.53;4960382;28;19974;-88
2021/07/29 07:14:36;;;;;;;;;;;;;;;21.96;nan;100390.34;4977698;28;20028;-87
2021/07/29 07:17:03;;;;;;;;;;;;;;;22.34;nan;100385.66;4980354;28;19956;-87
2021/07/29 07:19:28;;;;;;;;;;;;;;;22.31;nan;100378.88;4996947;28;20383;-85
2021/07/29 07:21:53;;;;;;;;;;;;;;;22.15;nan;100376.81;4985508;28;19918;-88
2021/07/29 07:24:18;;;;;;;;;;;;;;;22.59;nan;100375.44;4975936;28;19936;-88
2021/07/29 07:26:44;;;;;;;;;;;;;;;23.59;nan;100380.78;4975054;28;19914;-87
2021/07/29 07:29:09;;;;;;;;;;;;;;;24.55;nan;100387.06;4982067;28;19950;-86
2021/07/29 07:31:35;;;;;;;;;;;;;;;24.42;nan;100386.53;4973888;28;20032;-86
2021/07/29 07:34:01;;;;;;;;;;;;;;;24.49;nan;100384.50;4977188;28;19921;-86
2021/07/29 07:36:26;;;;;;;;;;;;;;;24.89;nan;100386.16;4975484;28;19922;-86
2021/07/29 07:38:53;;;;;;;;;;;;;;;25.05;nan;100388.00;4980179;28;20362;-86
2021/07/29 07:41:18;;;;;;;;;;;;;;;25.49;nan;100379.06;4964393;28;19930;-87
2021/07/29 07:43:44;;;;;;;;;;;;;;;25.19;nan;100391.16;4980288;28;19914;-85
2021/07/29 07:46:09;;;;;;;;;;;;;;;25.74;nan;100383.91;4978220;28;19918;-88
2021/07/29 07:48:34;;;;;;;;;;;;;;;25.71;nan;100370.88;4976194;28;19914;-88
2021/07/29 07:50:59;;;;;;;;;;;;;;;25.93;nan;100379.78;4979712;28;19918;-89
2021/07/29 07:53:26;;;;;;;;;;;;;;;26.25;nan;100376.28;4962557;28;20267;-87
2021/07/29 07:55:51;;;;;;;;;;;;;;;26.45;nan;100376.41;4974796;28;19922;-87
2021/07/29 07:58:17;;;;;;;;;;;;;;;26.10;nan;100373.44;4977462;28;20013;-87
2021/07/29 08:00:42;;;;;;;;;;;;;;;25.85;nan;100374.81;4967946;28;19918;-86
2021/07/29 08:03:07;;;;;;;;;;;;;;;26.02;nan;100378.25;4962894;28;20242;-87
2021/07/29 08:05:32;;;;;;;;;;;;;;;26.44;nan;100377.50;4978455;28;19924;-86
2021/07/29 08:07:59;;;;;;;;;;;;;;;26.43;nan;100384.00;4962440;28;20041;-87
2021/07/29 08:10:24;;;;;;;;;;;;;;;27.13;nan;100377.63;4978110;28;19936;-89
2021/07/29 08:12:49;;;;;;;;;;;;;;;27.12;nan;100371.34;4977375;28;20496;-87
2021/07/29 08:15:14;;;;;;;;;;;;;;;27.14;nan;100369.19;4978383;28;20294;-87
2021/07/29 08:17:40;;;;;;;;;;;;;;;27.47;nan;100373.41;4977753;28;19924;-87
2021/07/29 08:20:05;;;;;;;;;;;;;;;26.54;nan;100371.34;4961100;28;20035;-88
2021/07/29 08:22:30;;;;;;;;;;;;;;;26.85;nan;100374.22;4960710;28;19918;-88
2021/07/29 08:24:56;;;;;;;;;;;;;;;26.55;nan;100367.53;4976412;28;19924;-87
2021/07/29 08:27:22;;;;;;;;;;;;;;;25.40;nan;100373.28;4979578;28;20337;-88
2021/07/29 08:29:48;;;;;;;;;;;;;;;24.43;nan;100377.34;4977048;28;19925;-86
2021/07/29 08:32:14;;;;;;;;;;;;;;;23.92;nan;100367.38;4976905;28;20017;-89
2021/07/29 08:34:39;;;;;;;;;;;;;;;23.71;nan;100368.84;4980807;28;19953;-88
2021/07/29 08:37:04;;;;;;;;;;;;;;;23.90;nan;100361.38;4969445;28;19925;-88
2021/07/29 08:39:30;;;;;;;;;;;;;;;23.97;nan;100360.41;4961373;28;19913;-87
2021/07/29 08:41:55;;;;;;;;;;;;;;;23.73;nan;100372.16;4978359;28;20278;-87
2021/07/29 08:44:20;;;;;;;;;;;;;;;23.27;nan;100349.69;4977287;28;19921;-87
2021/07/29 08:46:45;;;;;;;;;;;;;;;23.05;nan;100360.31;4971979;28;19929;-89
2021/07/29 08:49:11;;;;;;;;;;;;;;;22.72;nan;100360.13;4992454;28;20313;-89
2021/07/29 08:51:37;;;;;;;;;;;;;;;22.78;nan;100361.84;4978467;28;19914;-89
2021/07/29 08:54:11;;;;;;;;;;;;;;;23.04;nan;100364.06;4968428;28;19918;-90
2021/07/29 08:56:37;;;;;;;;;;;;;;;23.27;nan;100362.38;4961915;28;19922;-87
2021/07/29 08:59:02;;;;;;;;;;;;;;;23.51;nan;100377.41;4961128;28;20326;-89
2021/07/29 09:01:59;;;;;;;;;;;;;;;22.85;nan;100362.53;4961110;28;19949;-87
2021/07/29 09:04:25;;;;;;;;;;;;;;;23.45;nan;100375.66;4965501;28;19965;-87
2021/07/29 09:07:01;;;;;;;;;;;;;;;23.79;nan;100367.69;4961696;28;19922;-90
2021/07/29 09:09:36;;;;;;;;;;;;;;;24.71;nan;100336.69;4978232;28;19918;-88
2021/07/29 09:12:17;;;;;;;;;;;;;;;25.52;nan;100271.06;4978280;28;19928;-87
2021/07/29 09:14:43;;;;;;;;;;;;;;;25.78;nan;100280.22;4994025;28;19914;-89
2021/07/29 09:17:09;;;;;;;;;;;;;;;26.22;nan;100285.47;4968209;28;19993;-87
2021/07/29 09:19:35;;;;;;;;;;;;;;;26.25;nan;100373.56;4976709;28;19913;-87
2021/07/29 09:22:19;;;;;;;;;;;;;;;25.56;nan;100385.91;4975509;28;19922;-87
2021/07/29 09:24:57;;;;;;;;;;;;;;;25.99;nan;100378.75;4971733;28;19918;-87
2021/07/29 09:27:41;;;;;;;;;;;;;;;25.39;nan;100383.28;4969141;28;20377;-87
2021/07/29 09:30:09;;;;;;;;;;;;;;;24.78;nan;100379.78;4970626;28;19918;-87
2021/07/29 09:32:35;;;;;;;;;;;;;;;23.85;nan;100380.19;4977079;28;19949;-87
2021/07/29 09:35:00;;;;;;;;;;;;;;;23.46;nan;100369.22;4963563;28;19948;-86
2021/07/29 09:37:26;;;;;;;;;;;;;;;23.77;nan;100369.81;4960201;28;19921;-87
2021/07/29 09:39:59;;;;;;;;;;;;;;;24.06;nan;100384.06;4961140;28;19921;-87
2021/07/29 09:42:25;;;;;;;;;;;;;;;24.04;nan;100374.59;4959766;28;20095;-85
2021/07/29 09:44:51;;;;;;;;;;;;;;;23.64;nan;100381.69;4964569;28;19957;-86
2021/07/29 09:47:18;;;;;;;;;;;;;;;23.48;nan;100382.47;4976348;28;19914;-87
2021/07/29 09:49:43;;;;;;;;;;;;;;;23.26;nan;100377.75;4973974;28;19949;-87
2021/07/29 09:52:09;;;;;;;;;;;;;;;22.97;nan;100373.31;4975324;28;20269;-87
2021/07/29 09:54:38;;;;;;;;;;;;;;;23.16;nan;100384.78;4973201;28;19918;-87
2021/07/29 09:57:04;;;;;;;;;;;;;;;23.54;nan;100376.09;4975925;28;20258;-87
2021/07/29 09:59:30;;;;;;;;;;;;;;;24.15;nan;100376.41;4976025;28;19924;-88
2021/07/29 10:01:56;;;;;;;;;;;;;;;24.57;nan;100378.69;4975999;28;19928;-86
2021/07/29 10:04:28;;;;;;;;;;;;;;;25.01;nan;100376.03;4977070;28;20338;-87
2021/07/29 10:06:56;;;;;;;;;;;;;;;25.53;nan;100367.47;4960123;28;19914;-86
2021/07/29 10:09:24;;;;;;;;;;;;;;;25.30;nan;100365.06;4961264;28;20289;-86
2021/07/29 10:11:51;;;;;;;;;;;;;;;25.42;nan;100371.94;4960370;28;19918;-87
2021/07/29 10:14:35;;;;;;;;;;;;;;;25.45;nan;100376.03;4991605;28;19917;-87
2021/07/29 10:17:01;;;;;;;;;;;;;;;25.53;nan;100375.59;4990636;28;19918;-86
2021/07/29 10:19:26;;;;;;;;;;;;;;;25.21;nan;100389.84;4975937;28;19925;-87
2021/07/29 10:21:51;;;;;;;;;;;;;;;25.23;nan;100378.78;4976044;28;19925;-86
2021/07/29 10:24:16;;;;;;;;;;;;;;;25.19;nan;100383.88;4976121;28;20294;-87
2021/07/29 10:26:48;;;;;;;;;;;;;;;25.00;nan;100390.63;4959248;28;20388;-86
2021/07/29 10:29:19;;;;;;;;;;;;;;;25.57;nan;100376.69;4976486;28;19965;-86
2021/07/29 10:31:49;;;;;;;;;;;;;;;25.98;nan;100374.44;4977300;28;20001;-88
2021/07/29 10:34:26;;;;;;;;;;;;;;;26.01;nan;100375.81;4968316;28;19940;-88
2021/07/29 10:36:52;;;;;;;;;;;;;;;25.82;nan;100378.84;4977688;28;19922;-88
2021/07/29 10:39:17;;;;;;;;;;;;;;;26.06;nan;100362.31;4979602;28;19922;-88
2021/07/29 10:41:44;;;;;;;;;;;;;;;25.85;nan;100370.22;4978898;28;19956;-87
2021/07/29 10:44:29;;;;;;;;;;;;;;;26.03;nan;100382.59;4976449;28;20001;-86
2021/07/29 10:46:54;;;;;;;;;;;;;;;26.21;nan;100370.53;4959236;28;19925;-87
2021/07/29 10:49:19;;;;;;;;;;;;;;;26.38;nan;100370.38;4974162;28;19926;-88
2021/07/29 10:52:03;;;;;;;;;;;;;;;26.29;nan;100363.84;4968393;28;19918;-90
2021/07/29 10:54:29;;;;;;;;;;;;;;;26.18;nan;100370.25;4981498;28;19918;-86
2021/07/29 10:56:55;;;;;;;;;;;;;;;25.95;nan;100361.38;4969007;28;20076;-88
2021/07/29 10:59:21;;;;;;;;;;;;;;;25.72;nan;100362.53;4960664;28;19965;-87
2021/07/29 11:01:47;;;;;;;;;;;;;;;25.90;nan;100363.25;4955788;28;19923;-87
2021/07/29 11:04:13;;;;;;;;;;;;;;;25.62;nan;100367.81;4944764;28;19921;-87
2021/07/29 11:06:43;;;;;;;;;;;;;;;25.52;nan;100349.56;4980374;28;20005;-88
2021/07/29 11:09:09;;;;;;;;;;;;;;;25.70;nan;100353.84;4967811;28;19929;-85
2021/07/29 11:11:38;;;;;;;;;;;;;;;25.91;nan;100354.88;4979713;28;19918;-87
2021/07/29 11:14:03;;;;;;;;;;;;;;;25.89;nan;100350.78;4971549;28;20025;-86
2021/07/29 11:16:29;;;;;;;;;;;;;;;25.72;nan;100350.84;4976604;28;20365;-88
2021/07/29 11:19:02;;;;;;;;;;;;;;;25.58;nan;100353.97;4979132;28;19922;-88
2021/07/29 11:21:28;;;;;;;;;;;;;;;25.27;nan;100349.31;4979783;28;19933;-88
2021/07/29 11:23:53;;;;;;;;;;;;;;;25.22;nan;100347.38;4979341;28;20779;-88
2021/07/29 11:26:18;;;;;;;;;;;;;;;25.37;nan;100352.94;4978975;28;19918;-86
2021/07/29 11:29:04;;;;;;;;;;;;;;;25.46;nan;100349.78;4979842;28;19982;-86
2021/07/29 11:31:29;;;;;;;;;;;;;;;25.04;nan;100351.19;4982953;28;19936;-86
2021/07/29 11:33:54;;;;;;;;;;;;;;;24.80;nan;100345.19;4992283;28;20369;-87
2021/07/29 11:36:20;;;;;;;;;;;;;;;24.50;nan;100345.59;4980809;28;20008;-87
2021/07/29 11:38:53;;;;;;;;;;;;;;;24.33;nan;100346.41;4967065;28;19953;-86
2021/07/29 11:41:18;;;;;;;;;;;;;;;24.27;nan;100344.69;4960534;29;19926;-87
2021/07/29 11:43:50;;;;;;;;;;;;;;;24.31;nan;100356.66;4974618;28;19914;-88
2021/07/29 11:46:16;;;;;;;;;;;;;;;24.12;nan;100344.44;4975715;28;20404;-88
2021/07/29 11:48:41;;;;;;;;;;;;;;;23.95;nan;100350.69;4968120;28;19921;-87
2021/07/29 11:51:12;;;;;;;;;;;;;;;24.00;nan;100346.41;4978821;28;19914;-87
2021/07/29 11:53:41;;;;;;;;;;;;;;;24.31;nan;100347.72;4973630;28;20486;-88
2021/07/29 11:56:10;;;;;;;;;;;;;;;24.58;nan;100337.88;4951401;28;19934;-88
2021/07/29 11:58:40;;;;;;;;;;;;;;;24.82;nan;100342.25;4951785;28;20285;-88
2021/07/29 12:01:10;;;;;;;;;;;;;;;25.03;nan;100338.75;4953418;28;19914;-87
2021/07/29 12:03:36;;;;;;;;;;;;;;;25.26;nan;100334.16;4962224;28;19963;-87
2021/07/29 12:06:02;;;;;;;;;;;;;;;25.29;nan;100333.63;4979642;28;19922;-87
2021/07/29 12:08:28;;;;;;;;;;;;;;;25.30;nan;100336.09;4979532;28;19968;-86
2021/07/29 12:10:55;;;;;;;;;;;;;;;25.35;nan;100325.31;4962056;28;20064;-87
2021/07/29 12:13:23;;;;;;;;;;;;;;;25.44;nan;100328.41;4968061;28;19914;-86
2021/07/29 12:15:49;;;;;;;;;;;;;;;25.45;nan;100321.09;4982534;28;20285;-87
2021/07/29 12:18:15;;;;;;;;;;;;;;;25.36;nan;100331.53;4972852;28;20040;-86
2021/07/29 12:20:44;;;;;;;;;;;;;;;24.99;nan;100326.78;4962150;28;20415;-86
2021/07/29 12:23:10;;;;;;;;;;;;;;;25.16;nan;100327.50;4964620;28;20008;-87
2021/07/29 12:25:38;;;;;;;;;;;;;;;25.44;nan;100320.28;4994362;28;19922;-87
2021/07/29 12:28:03;;;;;;;;;;;;;;;25.65;nan;100318.59;4978531;28;19920;-86
2021/07/29 12:30:38;;;;;;;;;;;;;;;25.63;nan;100315.31;4977563;28;19930;-88
2021/07/29 12:33:22;;;;;;;;;;;;;;;25.55;nan;100319.31;4976864;28;19913;-86
2021/07/29 12:35:57;;;;;;;;;;;;;;;25.87;nan;100315.00;4997562;28;19941;-86
2021/07/29 12:38:33;;;;;;;;;;;;;;;25.47;nan;100316.22;4996697;28;19913;-85
2021/07/29 12:41:00;;;;;;;;;;;;;;;25.64;nan;100306.91;5011585;28;19914;-88
2021/07/29 12:43:27;;;;;;;;;;;;;;;25.73;nan;100312.69;5014835;28;19923;-86
2021/07/29 12:46:04;;;;;;;;;;;;;;;25.78;nan;100307.31;5012210;28;19914;-85
2021/07/29 12:48:30;;;;;;;;;;;;;;;25.89;nan;100307.44;4979922;28;20176;-86
2021/07/29 12:50:56;;;;;;;;;;;;;;;25.96;nan;100310.75;4998767;28;20368;-86
2021/07/29 12:53:23;;;;;;;;;;;;;;;25.92;nan;100312.34;4964313;28;19918;-86
2021/07/29 12:55:49;;;;;;;;;;;;;;;25.88;nan;100300.38;4978631;28;20013;-86